createdAt,value
2022-08-03T00:00:42.745Z,20.6
2022-08-03T00:02:46.952Z,20.7
2022-08-03T00:04:50.996Z,20.6
2022-08-03T00:06:58.171Z,20.6
2022-08-03T00:09:02.340Z,20.6
2022-08-03T00:11:06.433Z,20.6
2022-08-03T00:13:10.584Z,20.5
2022-08-03T00:15:16.560Z,20.6
2022-08-03T00:17:18.838Z,20.6
2022-08-03T00:19:24.569Z,20.6
2022-08-03T00:21:31.700Z,20.5
2022-08-03T00:23:51.406Z,20.5
2022-08-03T00:25:39.964Z,20.5
2022-08-03T00:27:44.134Z,20.5
2022-08-03T00:29:59.642Z,20.4
2022-08-03T00:31:59.404Z,20.4
2022-08-03T00:33:59.024Z,20.4
2022-08-03T00:36:03.751Z,20.3
2022-08-03T00:38:07.880Z,20.3
2022-08-03T00:40:12.026Z,20.3
2022-08-03T00:42:16.354Z,20.2
2022-08-03T00:44:20.281Z,20.2
2022-08-03T00:46:24.424Z,20.2
2022-08-03T00:48:31.005Z,20.1
2022-08-03T00:55:47.568Z,19.9
2022-08-03T00:57:51.707Z,19.9
2022-08-03T00:59:55.816Z,19.9
2022-08-03T01:01:59.949Z,19.9
2022-08-03T01:04:07.121Z,19.8
2022-08-03T01:06:11.245Z,19.8
2022-08-03T01:08:15.391Z,19.7
2022-08-03T01:10:19.521Z,19.7
2022-08-03T01:14:27.787Z,19.6
2022-08-03T01:16:36.734Z,19.6
2022-08-03T01:18:39.086Z,19.6
2022-08-03T01:22:47.359Z,19.5
2022-08-03T01:24:51.484Z,19.5
2022-08-03T01:33:11.408Z,19.3
2022-08-03T01:41:27.571Z,19.2
2022-08-03T01:47:42.998Z,19.1
2022-08-03T01:52:02.940Z,19
2022-08-03T01:52:54.883Z,19
2022-08-03T01:54:58.972Z,19
2022-08-03T01:59:07.223Z,19
2022-08-03T02:01:14.414Z,18.9
2022-08-03T02:03:18.497Z,19
2022-08-03T02:05:22.642Z,18.9
2022-08-03T02:07:26.775Z,18.9
2022-08-03T02:09:30.987Z,18.9
2022-08-03T02:11:35.036Z,18.9
2022-08-03T02:13:39.196Z,18.9
2022-08-03T02:15:46.316Z,18.9
2022-08-03T02:17:50.442Z,18.8
2022-08-03T02:19:54.561Z,18.8
2022-08-03T02:22:01.074Z,18.8
2022-08-03T02:24:02.844Z,18.8
2022-08-03T02:26:06.988Z,18.8
2022-08-03T02:28:11.123Z,18.7
2022-08-03T02:30:18.274Z,18.7
2022-08-03T02:32:22.371Z,18.7
2022-08-03T02:36:31.493Z,18.7
2022-08-03T02:40:38.937Z,18.6
2022-08-03T02:44:50.212Z,18.8
2022-08-03T02:48:58.504Z,18.8
2022-08-03T02:51:23.119Z,18.8
2022-08-03T02:53:27.225Z,18.8
2022-08-03T02:55:31.336Z,18.8
2022-08-03T02:57:38.508Z,18.8
2022-08-03T02:59:42.646Z,18.8
2022-08-03T03:01:46.771Z,18.8
2022-08-03T03:03:50.903Z,18.8
2022-08-03T03:05:57.635Z,18.8
2022-08-03T03:07:59.150Z,18.8
2022-08-03T03:10:03.316Z,18.8
2022-08-03T03:12:10.490Z,18.8
2022-08-03T03:14:14.585Z,18.8
2022-08-03T03:16:18.716Z,18.7
2022-08-03T03:30:52.561Z,18.6
2022-08-03T03:32:54.802Z,18.7
2022-08-03T03:37:03.033Z,18.6
2022-08-03T03:41:14.316Z,18.6
2022-08-03T03:43:18.477Z,18.6
2022-08-03T03:45:22.588Z,18.6
2022-08-03T03:48:30.274Z,18.6
2022-08-03T03:50:34.445Z,18.7
2022-08-03T03:52:38.516Z,18.7
2022-08-03T03:54:45.684Z,18.6
2022-08-03T04:00:58.171Z,18.6
2022-08-03T04:03:02.186Z,18.6
2022-08-03T04:05:06.366Z,18.6
2022-08-03T04:07:10.460Z,18.6
2022-08-03T04:09:17.601Z,18.7
2022-08-03T04:11:29.249Z,18.7
2022-08-03T04:13:25.840Z,18.8
2022-08-03T04:15:29.996Z,18.8
2022-08-03T04:17:34.108Z,18.8
2022-08-03T04:21:42.374Z,18.9
2022-08-03T04:23:49.537Z,18.9
2022-08-03T04:25:53.662Z,18.9
2022-08-03T04:28:07.672Z,18.9
2022-08-03T04:30:01.950Z,18.9
2022-08-03T04:34:10.178Z,19
2022-08-03T04:36:14.316Z,19
2022-08-03T04:38:21.445Z,19
2022-08-03T04:40:25.573Z,19.1
2022-08-03T04:42:29.691Z,19.2
2022-08-03T04:43:33.262Z,19.2
2022-08-03T04:45:37.407Z,19.2
2022-08-03T04:47:41.551Z,19.3
2022-08-03T04:51:52.806Z,19.4
2022-08-03T04:53:57.830Z,19.4
2022-08-03T04:56:01.321Z,19.5
2022-08-03T04:58:05.205Z,19.5
2022-08-03T05:00:09.330Z,19.6
2022-08-03T05:02:13.837Z,19.6
2022-08-03T05:04:17.585Z,19.7
2022-08-03T05:06:25.128Z,19.8
2022-08-03T05:08:28.858Z,19.8
2022-08-03T05:14:41.258Z,20.1
2022-08-03T05:16:45.372Z,20.7
2022-08-03T05:20:56.642Z,20.3
2022-08-03T05:25:04.906Z,20.3
2022-08-03T05:29:13.141Z,20.2
2022-08-03T05:31:17.296Z,20.3
2022-08-03T05:35:57.642Z,20.3
2022-08-03T05:39:36.818Z,20.4
2022-08-03T05:40:40.385Z,20.4
2022-08-03T05:42:44.508Z,20.5
2022-08-03T05:44:48.654Z,20.5
2022-08-03T05:46:52.768Z,20.4
2022-08-03T05:49:00.072Z,20.4
2022-08-03T05:51:04.059Z,20.5
2022-08-03T05:53:08.170Z,20.5
2022-08-03T05:55:12.317Z,20.6
2022-08-03T05:57:16.442Z,20.8
2022-08-03T05:59:37.571Z,20.9
2022-08-03T06:01:24.755Z,20.8
2022-08-03T06:03:31.841Z,21.2
2022-08-03T06:05:35.977Z,21.2
2022-08-03T06:07:40.129Z,21.4
2022-08-03T06:10:34.435Z,21.6
2022-08-03T06:11:48.369Z,22.2
2022-08-03T06:13:52.493Z,21.8
2022-08-03T06:15:56.639Z,21.6
2022-08-03T06:18:05.354Z,21.3
2022-08-03T06:20:09.450Z,21.3
2022-08-03T06:22:13.594Z,21.2
2022-08-03T06:24:17.709Z,21.2
2022-08-03T06:26:21.821Z,21.2
2022-08-03T06:28:51.232Z,21.3
2022-08-03T06:30:30.109Z,21.3
2022-08-03T06:32:37.256Z,21.4
2022-08-03T06:36:45.503Z,21.6
2022-08-03T06:39:03.946Z,21.8
2022-08-03T06:41:08.099Z,21.9
2022-08-03T06:43:12.674Z,22.1
2022-08-03T06:45:19.374Z,22.2
2022-08-03T06:47:23.499Z,22.1
2022-08-03T06:49:27.704Z,21.8
2022-08-03T06:52:03.688Z,21.9
2022-08-03T06:53:35.861Z,22.1
2022-08-03T06:57:44.129Z,25.5
2022-08-03T07:00:07.870Z,26.2
2022-08-03T07:06:03.629Z,25.8
2022-08-03T07:12:16.214Z,24.6
2022-08-03T07:14:23.119Z,25.6
2022-08-03T07:20:35.470Z,26
2022-08-03T07:22:39.606Z,25.5
2022-08-03T07:24:43.708Z,26
2022-08-03T07:26:47.924Z,27.4
2022-08-03T07:28:54.958Z,27
2022-08-03T07:30:59.058Z,26.1
2022-08-03T07:33:03.183Z,25.2
2022-08-03T07:34:06.763Z,25.3
2022-08-03T07:36:10.872Z,25.3
2022-08-03T07:38:14.973Z,25.3
2022-08-03T07:40:19.089Z,26.5
2022-08-03T07:42:26.218Z,27.8
2022-08-03T07:44:30.322Z,27.6
2022-08-03T07:46:34.414Z,28.2
2022-08-03T07:48:38.550Z,28.1
2022-08-03T07:50:42.613Z,27.8
2022-08-03T07:52:46.706Z,28.1
2022-08-03T07:56:57.958Z,27.9
2022-08-03T07:59:02.080Z,28.5
2022-08-03T08:01:06.271Z,29.2
2022-08-03T08:03:10.221Z,30.9
2022-08-03T08:05:14.317Z,31
2022-08-03T08:07:18.427Z,30.9
2022-08-03T08:09:22.498Z,31.3
2022-08-03T08:11:29.658Z,30.9
2022-08-03T08:13:33.734Z,30.9
2022-08-03T08:15:42.827Z,30.2
2022-08-03T08:17:41.873Z,31.2
2022-08-03T08:19:51.718Z,30.2
2022-08-03T08:21:52.959Z,30
2022-08-03T08:23:57.032Z,30
2022-08-03T08:26:01.231Z,30.7
2022-08-03T08:31:12.910Z,30.5
2022-08-03T08:33:22.974Z,31.3
2022-08-03T08:35:21.003Z,31.2
2022-08-03T08:37:25.060Z,31.6
2022-08-03T08:39:32.175Z,30.6
2022-08-03T08:41:36.226Z,31.5
2022-08-03T08:43:40.289Z,31.7
2022-08-03T08:45:44.324Z,31.4
2022-08-03T08:47:51.499Z,31.1
2022-08-03T08:50:08.868Z,30.8
2022-08-03T08:52:00.727Z,31.3
2022-08-03T08:54:03.581Z,30.6
2022-08-03T08:56:07.598Z,29.8
2022-08-03T09:00:15.801Z,30
2022-08-03T09:02:20.021Z,30.2
2022-08-03T09:04:23.779Z,30.1
2022-08-03T09:06:27.792Z,30.3
2022-08-03T09:08:34.867Z,30.5
2022-08-03T09:10:38.904Z,30.3
2022-08-03T09:12:43.206Z,29.6
2022-08-03T09:15:07.626Z,29.4
2022-08-03T09:16:50.977Z,29.1
2022-08-03T09:18:55.017Z,29
2022-08-03T09:21:03.806Z,28.8
2022-08-03T09:23:26.225Z,28.7
2022-08-03T09:25:23.773Z,28.6
2022-08-03T09:27:14.142Z,28.5
2022-08-03T09:28:52.698Z,28.6
2022-08-03T09:32:25.716Z,28.5
2022-08-03T09:36:36.777Z,28.3
2022-08-03T09:40:44.793Z,28.8
2022-08-03T09:42:48.805Z,28.9
2022-08-03T09:46:57.028Z,29.7
2022-08-03T09:49:00.850Z,30.1
2022-08-03T09:51:14.235Z,30.2
2022-08-03T09:55:23.822Z,30.1
2022-08-03T09:57:20.349Z,29.6
2022-08-03T09:59:23.822Z,29.5
2022-08-03T10:01:27.987Z,29.6
2022-08-03T10:03:31.808Z,29.6
2022-08-03T10:05:38.870Z,29.5
2022-08-03T10:07:46.016Z,29.7
2022-08-03T10:09:46.803Z,29.5
2022-08-03T10:11:50.807Z,29.4
2022-08-03T10:13:58.009Z,29.7
2022-08-03T10:16:23.556Z,29.5
2022-08-03T10:18:02.758Z,29.3
2022-08-03T10:20:09.816Z,29.9
2022-08-03T10:22:13.791Z,30.3
2022-08-03T10:24:17.783Z,30.3
2022-08-03T10:28:44.794Z,29.7
2022-08-03T10:30:44.310Z,29.9
2022-08-03T10:32:51.528Z,30.1
2022-08-03T10:35:00.331Z,30
2022-08-03T10:36:59.304Z,30
2022-08-03T10:39:03.261Z,30.1
2022-08-03T10:41:07.250Z,30.5
2022-08-03T10:43:11.205Z,30.1
2022-08-03T10:45:15.172Z,30.1
2022-08-03T10:49:34.536Z,30
2022-08-03T10:59:46.094Z,30.6
2022-08-03T11:01:59.452Z,30.3
2022-08-03T11:03:57.008Z,30.4
2022-08-03T11:06:00.978Z,30.6
2022-08-03T11:08:04.935Z,30.6
2022-08-03T11:14:16.829Z,30.8
2022-08-03T11:16:23.848Z,31
2022-08-03T11:18:27.798Z,30.9
2022-08-03T11:21:35.307Z,30.8
2022-08-03T11:24:04.210Z,31.3
2022-08-03T11:25:53.344Z,31.5
2022-08-03T11:27:47.120Z,31.6
2022-08-03T11:29:54.126Z,31.4
2022-08-03T11:31:58.102Z,31.9
2022-08-03T11:34:02.032Z,31.6
2022-08-03T11:36:05.988Z,31.7
2022-08-03T11:38:09.947Z,31.7
2022-08-03T11:40:13.877Z,31.8
2022-08-03T11:42:17.812Z,32.2
2022-08-03T11:44:24.827Z,32
2022-08-03T11:46:29.965Z,31.6
2022-08-03T11:50:36.632Z,31.4
2022-08-03T11:52:40.561Z,31.5
2022-08-03T11:54:44.480Z,31.8
2022-08-03T11:56:48.413Z,31.6
2022-08-03T11:59:01.067Z,31.6
2022-08-03T12:00:59.325Z,31.6
2022-08-03T12:03:03.357Z,31.4
2022-08-03T12:05:07.164Z,31.2
2022-08-03T12:07:11.113Z,30.9
2022-08-03T12:09:15.578Z,30.9
2022-08-03T12:11:18.947Z,31.4
2022-08-03T12:14:05.774Z,31.3
2022-08-03T12:15:31.400Z,31.2
2022-08-03T12:17:35.237Z,31.3
2022-08-03T12:18:38.780Z,30.8
2022-08-03T12:20:42.670Z,30.7
2022-08-03T12:26:59.447Z,31
2022-08-03T12:29:01.401Z,31
2022-08-03T12:31:05.318Z,31.4
2022-08-03T12:33:09.227Z,31.5
2022-08-03T12:35:13.169Z,31.5
2022-08-03T12:37:21.871Z,31.5
2022-08-03T12:39:21.015Z,31.7
2022-08-03T12:41:28.023Z,31.4
2022-08-03T12:43:37.593Z,31.4
2022-08-03T12:45:35.894Z,31.3
2022-08-03T12:47:39.851Z,31.2
2022-08-03T12:49:43.804Z,31.3
2022-08-03T12:51:47.872Z,31
2022-08-03T12:53:51.692Z,31.1
2022-08-03T12:56:04.943Z,31.2
2022-08-03T12:58:02.673Z,31.5
2022-08-03T13:00:06.608Z,31.7
2022-08-03T13:02:10.657Z,31.4
2022-08-03T13:04:18.250Z,31.3
2022-08-03T13:06:18.458Z,31
2022-08-03T13:08:22.446Z,31.2
2022-08-03T13:12:33.405Z,31.3
2022-08-03T13:14:37.375Z,31
2022-08-03T13:15:47.599Z,31.1
2022-08-03T13:17:44.849Z,31.1
2022-08-03T13:21:53.614Z,31.5
2022-08-03T13:23:59.802Z,31.7
2022-08-03T13:26:03.773Z,31.7
2022-08-03T13:28:12.420Z,31.9
2022-08-03T13:30:11.688Z,31.6
2022-08-03T13:36:23.593Z,31.7
2022-08-03T13:38:30.682Z,31.2
2022-08-03T13:40:41.428Z,31
2022-08-03T13:42:38.916Z,30.6
2022-08-03T13:46:46.448Z,31.6
2022-08-03T13:50:54.355Z,31.6
2022-08-03T13:59:13.303Z,31.5
2022-08-03T14:01:18.589Z,31.8
2022-08-03T14:05:25.182Z,31
2022-08-03T14:07:32.213Z,31.5
2022-08-03T14:09:36.168Z,31.6
2022-08-03T14:12:07.516Z,31.7
2022-08-03T14:14:02.191Z,31.5
2022-08-03T14:16:06.173Z,31.6
2022-08-03T14:18:12.754Z,31.7
2022-08-03T14:20:37.126Z,31.9
2022-08-03T14:24:25.019Z,31.9
2022-08-03T14:26:28.947Z,31.8
2022-08-03T14:28:32.912Z,31.3
2022-08-03T14:30:36.855Z,31.4
2022-08-03T14:32:40.755Z,31.2
2022-08-03T14:34:47.736Z,31
2022-08-03T14:36:51.671Z,31
2022-08-03T14:39:00.809Z,31.3
2022-08-03T14:40:59.693Z,31.2
2022-08-03T14:43:03.464Z,31.1
2022-08-03T14:45:09.421Z,31.1
2022-08-03T14:47:11.346Z,31.4
2022-08-03T14:50:37.641Z,31.5
2022-08-03T14:51:22.222Z,31.5
2022-08-03T14:53:26.159Z,31.5
2022-08-03T14:57:33.964Z,31.5
2022-08-03T14:59:56.127Z,31.7
2022-08-03T15:02:02.497Z,31.8
2022-08-03T15:03:48.710Z,32.5
2022-08-03T15:05:52.589Z,32.3
2022-08-03T15:11:03.865Z,32.4
2022-08-03T15:13:07.667Z,32.3
2022-08-03T15:15:11.500Z,31.9
2022-08-03T15:20:03.240Z,31.9
2022-08-03T15:21:46.329Z,32.6
2022-08-03T15:30:04.715Z,32.3
2022-08-03T15:31:48.299Z,32.9
2022-08-03T15:33:52.103Z,32.7
2022-08-03T15:35:55.927Z,32.6
2022-08-03T15:40:03.588Z,33
2022-08-03T15:42:07.303Z,32.8
2022-08-03T15:44:11.131Z,33.6
2022-08-03T15:46:29.757Z,33.1
2022-08-03T15:48:21.778Z,33.5
2022-08-03T15:50:25.598Z,34.2
2022-08-03T15:52:29.346Z,34.4
2022-08-03T15:54:33.160Z,34.9
2022-08-03T15:56:36.946Z,33.7
2022-08-03T15:59:09.201Z,34
2022-08-03T16:04:55.181Z,34.7
2022-08-03T16:05:58.620Z,34.7
2022-08-03T16:08:03.753Z,34.7
2022-08-03T16:10:06.228Z,34.5
2022-08-03T16:14:32.121Z,34.8
2022-08-03T16:18:24.455Z,34.7
2022-08-03T16:20:31.564Z,34.3
2022-08-03T16:22:32.038Z,33.1
2022-08-03T16:24:35.842Z,32.6
2022-08-03T16:26:39.638Z,32.9
2022-08-03T16:28:46.505Z,34.2
2022-08-03T16:30:50.292Z,34.7
2022-08-03T16:32:54.090Z,34.8
2022-08-03T16:34:57.906Z,35.6
2022-08-03T16:37:16.517Z,35.5
2022-08-03T16:39:05.547Z,34.4
2022-08-03T16:41:09.272Z,34.9
2022-08-03T16:43:18.316Z,34.6
2022-08-03T16:45:19.961Z,34.6
2022-08-03T16:49:54.966Z,33.3
2022-08-03T16:51:50.767Z,32.9
2022-08-03T16:54:07.513Z,33.9
2022-08-03T16:55:43.534Z,34.5
2022-08-03T16:57:59.583Z,34.3
2022-08-03T16:59:49.669Z,34.3
2022-08-03T17:01:53.565Z,35
2022-08-03T17:02:56.906Z,34.5
2022-08-03T17:05:00.722Z,34
2022-08-03T17:07:04.507Z,34
2022-08-03T17:09:09.672Z,34.2
2022-08-03T17:11:15.247Z,34.8
2022-08-03T17:13:21.929Z,34.9
2022-08-03T17:15:38.413Z,35
2022-08-03T17:17:26.649Z,34.9
2022-08-03T17:19:30.481Z,34.5
2022-08-03T17:29:52.614Z,33.8
2022-08-03T17:31:56.441Z,34.4
2022-08-03T17:36:04.036Z,34
2022-08-03T17:38:13.755Z,33.8
2022-08-03T17:40:18.017Z,33.1
2022-08-03T17:44:35.196Z,33.1
2022-08-03T17:46:26.208Z,32.6
2022-08-03T17:48:30.037Z,32.4
2022-08-03T17:50:33.908Z,31.7
2022-08-03T17:54:44.630Z,31.6
2022-08-03T17:56:48.516Z,31.2
2022-08-03T17:58:52.722Z,31.4
2022-08-03T18:01:59.566Z,32.9
2022-08-03T18:03:20.877Z,33
2022-08-03T18:05:24.485Z,33.5
2022-08-03T18:07:40.882Z,33.7
2022-08-03T18:10:06.350Z,33.7
2022-08-03T18:11:39.161Z,33.3
2022-08-03T18:13:43.038Z,33.5
2022-08-03T18:15:48.457Z,33.4
2022-08-03T18:17:57.979Z,33.3
2022-08-03T18:20:00.974Z,33.1
2022-08-03T18:22:04.331Z,32.6
2022-08-03T18:24:06.908Z,32.2
2022-08-03T18:28:14.649Z,30.4
2022-08-03T18:30:18.518Z,29.9
2022-08-03T18:32:22.749Z,29.6
2022-08-03T18:34:33.112Z,29.4
2022-08-03T18:36:33.261Z,29.1
2022-08-03T18:38:37.185Z,29
2022-08-03T18:40:48.715Z,29
2022-08-03T18:42:52.743Z,28.9
2022-08-03T18:44:53.915Z,28.8
2022-08-03T18:46:53.044Z,28.7
2022-08-03T18:48:56.942Z,28.6
2022-08-03T18:51:03.974Z,28.5
2022-08-03T18:53:15.553Z,28.4
2022-08-03T18:55:20.220Z,28.4
2022-08-03T19:00:24.935Z,28.2
2022-08-03T19:02:27.495Z,28.1
2022-08-03T19:04:34.544Z,28
2022-08-03T19:06:38.577Z,28
2022-08-03T19:08:42.662Z,27.9
2022-08-03T19:10:57.525Z,27.8
2022-08-03T19:12:50.651Z,27.7
2022-08-03T19:14:54.686Z,27.7
2022-08-03T19:16:58.709Z,27.6
2022-08-03T19:19:05.863Z,27.4
2022-08-03T19:21:15.520Z,27.4
2022-08-03T19:23:13.913Z,27.3
2022-08-03T19:27:26.957Z,27.1
2022-08-03T19:29:44.559Z,27
2022-08-03T19:31:31.136Z,26.9
2022-08-03T19:33:56.056Z,26.7
2022-08-03T19:35:52.120Z,26.6
2022-08-03T19:37:45.319Z,26.5
2022-08-03T19:41:53.507Z,26.2
2022-08-03T19:46:05.183Z,26.1
2022-08-03T19:53:20.450Z,25.9
2022-08-03T19:55:24.539Z,25.8
2022-08-03T19:57:28.626Z,25.7
2022-08-03T19:59:32.782Z,25.6
2022-08-03T20:01:50.873Z,25.5
2022-08-03T20:03:43.971Z,25.5
2022-08-03T20:05:52.379Z,25.5
2022-08-03T20:07:52.066Z,25.4
2022-08-03T20:12:00.237Z,25.3
2022-08-03T20:14:04.305Z,25.2
2022-08-03T20:16:11.441Z,25.2
2022-08-03T20:18:16.759Z,25.2
2022-08-03T20:20:19.600Z,25.1
2022-08-03T20:22:23.685Z,25.1
2022-08-03T20:24:27.771Z,25
2022-08-03T20:26:31.841Z,25
2022-08-03T20:28:35.938Z,24.9
2022-08-03T20:30:43.174Z,24.8
2022-08-03T20:32:47.177Z,24.8
2022-08-03T20:34:51.261Z,24.7
2022-08-03T20:36:55.411Z,24.7
2022-08-03T20:38:59.634Z,24.6
2022-08-03T20:41:03.548Z,24.6
2022-08-03T20:46:00.206Z,24.4
2022-08-03T20:47:24.007Z,24.4
2022-08-03T20:49:23.217Z,24.3
2022-08-03T20:50:26.551Z,24.2
2022-08-03T20:54:34.742Z,24.2
2022-08-03T20:56:38.848Z,24.1
2022-08-03T20:58:50.762Z,24.1
2022-08-03T21:07:02.401Z,23.9
2022-08-03T21:09:06.508Z,23.8
2022-08-03T21:13:18.907Z,23.7
2022-08-03T21:15:59.618Z,23.7
2022-08-03T21:17:39.955Z,23.7
2022-08-03T21:19:30.118Z,23.7
2022-08-03T21:21:34.229Z,23.6
2022-08-03T21:25:42.457Z,23.5
2022-08-03T21:27:49.599Z,23.4
2022-08-03T21:29:54.183Z,23.4
2022-08-03T21:31:57.823Z,23.3
2022-08-03T21:34:01.916Z,23.3
2022-08-03T21:36:06.049Z,23.2
2022-08-03T21:38:10.167Z,23.1
2022-08-03T21:40:14.252Z,23
2022-08-03T21:42:21.407Z,23
2022-08-03T21:44:28.937Z,22.9
2022-08-03T21:46:29.648Z,23
2022-08-03T21:50:06.831Z,22.9
2022-08-03T21:51:03.667Z,22.8
2022-08-03T21:53:07.800Z,22.9
2022-08-03T21:55:18.467Z,22.8
2022-08-03T21:59:23.159Z,22.8
2022-08-03T22:13:55.055Z,22.5
2022-08-03T22:18:03.336Z,22.4
2022-08-03T22:20:07.430Z,22.4
2022-08-03T22:22:11.551Z,22.5
2022-08-03T22:24:18.690Z,22.2
2022-08-03T22:26:34.898Z,22.1
2022-08-03T22:30:31.068Z,22.1
2022-08-03T22:36:43.405Z,22.1
2022-08-03T22:40:54.684Z,22
2022-08-03T22:44:04.735Z,21.9
2022-08-03T22:46:12.549Z,21.9
2022-08-03T22:48:10.665Z,21.9
2022-08-03T22:50:32.344Z,21.8
2022-08-03T22:52:21.882Z,21.8
2022-08-03T22:54:25.993Z,21.8
2022-08-03T22:56:30.313Z,21.8
2022-08-03T22:58:34.264Z,21.7
2022-08-03T23:00:38.371Z,21.7
2022-08-03T23:02:42.506Z,21.6
2022-08-03T23:04:46.627Z,21.6
2022-08-03T23:06:53.785Z,21.5
2022-08-03T23:08:57.910Z,21.5
2022-08-03T23:11:02.046Z,21.5
2022-08-03T23:13:06.172Z,21.6
2022-08-03T23:17:14.424Z,21.4
2022-08-03T23:29:42.275Z,21.3
2022-08-03T23:31:46.365Z,21.2
2022-08-03T23:36:28.014Z,21.1
2022-08-03T23:38:04.643Z,21.1
2022-08-03T23:41:09.461Z,21
2022-08-03T23:43:16.750Z,21
2022-08-03T23:45:17.749Z,21
2022-08-03T23:47:22.023Z,21
2022-08-03T23:49:29.044Z,21
2022-08-03T23:51:33.150Z,20.9
2022-08-03T23:53:39.053Z,20.9
2022-08-03T23:55:41.425Z,20.8
2022-08-03T23:57:45.538Z,20.9
2022-08-03T23:59:49.675Z,20.8
